sensor_id;sensor_type;location;lat;lon;timestamp;pressure;altitude;pressure_sealevel;temperature;humidity
3668;BME280;24099;47.102;15.440;2023-04-08T00:00:21;96963.22;;;4.97;100.00
3668;BME280;24099;47.102;15.440;2023-04-08T00:02:49;96972.75;;;4.89;100.00
3668;BME280;24099;47.102;15.440;2023-04-08T00:05:18;96968.44;;;4.62;100.00
3668;BME280;24099;47.102;15.440;2023-04-08T00:07:50;96975.91;;;4.74;100.00
3668;BME280;24099;47.102;15.440;2023-04-08T00:10:18;96969.63;;;4.85;100.00
3668;BME280;24099;47.102;15.440;2023-04-08T00:12:46;96969.59;;;5.03;100.00
3668;BME280;24099;47.102;15.440;2023-04-08T00:15:14;96969.63;;;4.85;100.00
3668;BME280;24099;47.102;15.440;2023-04-08T00:17:42;96962.19;;;4.72;100.00
3668;BME280;24099;47.102;15.440;2023-04-08T00:20:10;96967.09;;;4.75;100.00
3668;BME280;24099;47.102;15.440;2023-04-08T00:22:38;96964.41;;;4.85;100.00
3668;BME280;24099;47.102;15.440;2023-04-08T00:25:12;96963.25;;;4.79;100.00
3668;BME280;24099;47.102;15.440;2023-04-08T00:27:42;96967.38;;;4.90;100.00
3668;BME280;24099;47.102;15.440;2023-04-08T00:30:10;96958.38;;;4.84;100.00
3668;BME280;24099;47.102;15.440;2023-04-08T00:32:38;96959.88;;;4.69;100.00
3668;BME280;24099;47.102;15.440;2023-04-08T00:35:13;96960.47;;;4.63;100.00
3668;BME280;24099;47.102;15.440;2023-04-08T00:37:41;96960.78;;;4.60;100.00
3668;BME280;24099;47.102;15.440;2023-04-08T00:40:11;96959.94;;;4.60;100.00
3668;BME280;24099;47.102;15.440;2023-04-08T00:42:39;96962.34;;;4.71;100.00
3668;BME280;24099;47.102;15.440;2023-04-08T00:45:14;96956.81;;;4.74;100.00
3668;BME280;24099;47.102;15.440;2023-04-08T00:47:42;96966.72;;;4.70;100.00
3668;BME280;24099;47.102;15.440;2023-04-08T00:50:11;96966.72;;;4.70;100.00
3668;BME280;24099;47.102;15.440;2023-04-08T00:52:38;96964.72;;;4.64;100.00
3668;BME280;24099;47.102;15.440;2023-04-08T00:55:11;96965.63;;;4.55;100.00
3668;BME280;24099;47.102;15.440;2023-04-08T00:57:38;96968.28;;;4.63;100.00
3668;BME280;24099;47.102;15.440;2023-04-08T01:00:09;96963.31;;;4.70;100.00
3668;BME280;24099;47.102;15.440;2023-04-08T01:02:44;96967.69;;;4.69;100.00
3668;BME280;24099;47.102;15.440;2023-04-08T01:05:19;96960.25;;;4.74;100.00
3668;BME280;24099;47.102;15.440;2023-04-08T01:07:52;96950.13;;;4.71;100.00
3668;BME280;24099;47.102;15.440;2023-04-08T01:10:27;96952.59;;;4.73;100.00
3668;BME280;24099;47.102;15.440;2023-04-08T01:13:02;96954.38;;;4.55;100.00
3668;BME280;24099;47.102;15.440;2023-04-08T01:15:33;96954.59;;;4.61;100.00
3668;BME280;24099;47.102;15.440;2023-04-08T01:18:06;96954.28;;;4.64;100.00
3668;BME280;24099;47.102;15.440;2023-04-08T01:20:34;96949.47;;;4.69;100.00
3668;BME280;24099;47.102;15.440;2023-04-08T01:23:12;96957.28;;;4.69;100.00
3668;BME280;24099;47.102;15.440;2023-04-08T01:26:03;96950.72;;;4.65;100.00
3668;BME280;24099;47.102;15.440;2023-04-08T01:28:33;96945.59;;;4.56;100.00
3668;BME280;24099;47.102;15.440;2023-04-08T01:31:02;96947.75;;;4.60;100.00
3668;BME280;24099;47.102;15.440;2023-04-08T01:33:31;96950.56;;;4.67;100.00
3668;BME280;24099;47.102;15.440;2023-04-08T01:36:00;96953.03;;;4.68;100.00
3668;BME280;24099;47.102;15.440;2023-04-08T01:38:29;96948.50;;;4.70;100.00
3668;BME280;24099;47.102;15.440;2023-04-08T01:40:58;96947.53;;;4.71;100.00
3668;BME280;24099;47.102;15.440;2023-04-08T01:43:28;96955.56;;;4.78;100.00
3668;BME280;24099;47.102;15.440;2023-04-08T01:45:58;96943.56;;;4.67;100.00
3668;BME280;24099;47.102;15.440;2023-04-08T01:48:27;96938.59;;;4.74;100.00
3668;BME280;24099;47.102;15.440;2023-04-08T01:50:57;96947.00;;;4.68;100.00
3668;BME280;24099;47.102;15.440;2023-04-08T01:53:25;96945.22;;;4.68;100.00
3668;BME280;24099;47.102;15.440;2023-04-08T01:55:57;96949.00;;;4.74;100.00
3668;BME280;24099;47.102;15.440;2023-04-08T01:58:50;96947.09;;;4.58;100.00
3668;BME280;24099;47.102;15.440;2023-04-08T02:01:22;96942.53;;;4.60;100.00
3668;BME280;24099;47.102;15.440;2023-04-08T02:03:52;96945.59;;;4.73;100.00
3668;BME280;24099;47.102;15.440;2023-04-08T02:06:24;96949.19;;;4.80;100.00
3668;BME280;24099;47.102;15.440;2023-04-08T02:08:54;96954.03;;;4.93;100.00
3668;BME280;24099;47.102;15.440;2023-04-08T02:11:42;96953.31;;;4.83;100.00
3668;BME280;24099;47.102;15.440;2023-04-08T02:14:11;96953.31;;;4.83;100.00
3668;BME280;24099;47.102;15.440;2023-04-08T02:16:51;96954.28;;;4.82;100.00
3668;BME280;24099;47.102;15.440;2023-04-08T02:19:24;96947.13;;;4.84;100.00
3668;BME280;24099;47.102;15.440;2023-04-08T02:22:05;96955.75;;;4.84;100.00
3668;BME280;24099;47.102;15.440;2023-04-08T02:24:37;96952.47;;;4.82;100.00
3668;BME280;24099;47.102;15.440;2023-04-08T02:27:10;96951.66;;;4.82;100.00
3668;BME280;24099;47.102;15.440;2023-04-08T02:29:45;96953.94;;;4.77;100.00
3668;BME280;24099;47.102;15.440;2023-04-08T02:32:14;96953.94;;;4.77;100.00
3668;BME280;24099;47.102;15.440;2023-04-08T02:34:46;96956.88;;;4.82;100.00
3668;BME280;24099;47.102;15.440;2023-04-08T02:37:14;96955.41;;;5.05;100.00
3668;BME280;24099;47.102;15.440;2023-04-08T02:39:47;96957.41;;;4.85;100.00
3668;BME280;24099;47.102;15.440;2023-04-08T02:42:17;96969.47;;;4.87;100.00
3668;BME280;24099;47.102;15.440;2023-04-08T02:44:47;96963.47;;;4.68;100.00
3668;BME280;24099;47.102;15.440;2023-04-08T02:47:16;96958.06;;;4.88;100.00
3668;BME280;24099;47.102;15.440;2023-04-08T02:49:46;96956.06;;;4.81;100.00
3668;BME280;24099;47.102;15.440;2023-04-08T02:52:14;96953.56;;;4.54;100.00
3668;BME280;24099;47.102;15.440;2023-04-08T02:54:42;96954.59;;;4.61;100.00
3668;BME280;24099;47.102;15.440;2023-04-08T02:57:10;96952.81;;;4.62;100.00
3668;BME280;24099;47.102;15.440;2023-04-08T02:59:43;96965.31;;;4.76;100.00
3668;BME280;24099;47.102;15.440;2023-04-08T03:02:12;96967.09;;;4.75;100.00
3668;BME280;24099;47.102;15.440;2023-04-08T03:04:40;96958.91;;;4.70;100.00
3668;BME280;24099;47.102;15.440;2023-04-08T03:07:10;96961.81;;;4.67;100.00
3668;BME280;24099;47.102;15.440;2023-04-08T03:09:38;96963.53;;;4.76;100.00
3668;BME280;24099;47.102;15.440;2023-04-08T03:12:06;96970.38;;;4.77;100.00
3668;BME280;24099;47.102;15.440;2023-04-08T03:14:36;96965.78;;;4.71;100.00
3668;BME280;24099;47.102;15.440;2023-04-08T03:17:10;96967.31;;;4.64;100.00
3668;BME280;24099;47.102;15.440;2023-04-08T03:19:39;96971.03;;;4.62;100.00
3668;BME280;24099;47.102;15.440;2023-04-08T03:22:12;96969.78;;;4.66;100.00
3668;BME280;24099;47.102;15.440;2023-04-08T03:24:42;96967.47;;;4.63;100.00
3668;BME280;24099;47.102;15.440;2023-04-08T03:27:12;96966.91;;;4.51;100.00
3668;BME280;24099;47.102;15.440;2023-04-08T03:29:41;96978.03;;;4.43;100.00
3668;BME280;24099;47.102;15.440;2023-04-08T03:32:11;96972.47;;;4.56;100.00
3668;BME280;24099;47.102;15.440;2023-04-08T03:34:46;96978.03;;;4.61;100.00
3668;BME280;24099;47.102;15.440;2023-04-08T03:37:16;96973.38;;;4.47;100.00
3668;BME280;24099;47.102;15.440;2023-04-08T03:39:54;96974.47;;;4.62;100.00
3668;BME280;24099;47.102;15.440;2023-04-08T03:42:22;96981.69;;;4.68;100.00
3668;BME280;24099;47.102;15.440;2023-04-08T03:44:50;96981.25;;;4.73;100.00
3668;BME280;24099;47.102;15.440;2023-04-08T03:47:17;96989.22;;;4.71;100.00
3668;BME280;24099;47.102;15.440;2023-04-08T03:49:52;96978.56;;;4.65;100.00
3668;BME280;24099;47.102;15.440;2023-04-08T03:52:21;96988.78;;;4.58;100.00
3668;BME280;24099;47.102;15.440;2023-04-08T03:54:49;96987.88;;;4.67;100.00
3668;BME280;24099;47.102;15.440;2023-04-08T03:57:20;96986.91;;;4.68;100.00
3668;BME280;24099;47.102;15.440;2023-04-08T03:59:48;96994.00;;;4.76;100.00
3668;BME280;24099;47.102;15.440;2023-04-08T04:02:16;96995.16;;;4.81;100.00
3668;BME280;24099;47.102;15.440;2023-04-08T04:04:48;96994.28;;;4.91;100.00
3668;BME280;24099;47.102;15.440;2023-04-08T04:07:16;96990.78;;;4.82;100.00
3668;BME280;24099;47.102;15.440;2023-04-08T04:09:44;96993.19;;;4.75;100.00
3668;BME280;24099;47.102;15.440;2023-04-08T04:12:11;96997.78;;;4.81;100.00
3668;BME280;24099;47.102;15.440;2023-04-08T04:14:39;97006.25;;;4.83;100.00
3668;BME280;24099;47.102;15.440;2023-04-08T04:17:07;97015.72;;;4.67;100.00
3668;BME280;24099;47.102;15.440;2023-04-08T04:19:35;97012.53;;;4.55;100.00
3668;BME280;24099;47.102;15.440;2023-04-08T04:22:04;97024.09;;;4.70;100.00
3668;BME280;24099;47.102;15.440;2023-04-08T04:24:32;97025.63;;;4.63;100.00
3668;BME280;24099;47.102;15.440;2023-04-08T04:27:00;97034.25;;;4.46;100.00
3668;BME280;24099;47.102;15.440;2023-04-08T04:29:30;97029.88;;;4.46;100.00
3668;BME280;24099;47.102;15.440;2023-04-08T04:31:58;97036.13;;;4.36;100.00
3668;BME280;24099;47.102;15.440;2023-04-08T04:34:26;97036.03;;;4.28;100.00
3668;BME280;24099;47.102;15.440;2023-04-08T04:36:54;97045.09;;;4.24;100.00
3668;BME280;24099;47.102;15.440;2023-04-08T04:39:23;97042.06;;;4.28;100.00
3668;BME280;24099;47.102;15.440;2023-04-08T04:41:51;97046.72;;;4.25;100.00
3668;BME280;24099;47.102;15.440;2023-04-08T04:44:19;97061.53;;;4.24;100.00
3668;BME280;24099;47.102;15.440;2023-04-08T04:46:47;97057.44;;;4.22;100.00
3668;BME280;24099;47.102;15.440;2023-04-08T04:49:15;97071.88;;;4.16;100.00
3668;BME280;24099;47.102;15.440;2023-04-08T04:51:44;97076.25;;;4.15;100.00
3668;BME280;24099;47.102;15.440;2023-04-08T04:54:13;97083.69;;;4.10;100.00
3668;BME280;24099;47.102;15.440;2023-04-08T04:56:42;97090.38;;;4.13;100.00
3668;BME280;24099;47.102;15.440;2023-04-08T04:59:11;97087.13;;;4.38;100.00
3668;BME280;24099;47.102;15.440;2023-04-08T05:01:40;97095.31;;;4.43;100.00
3668;BME280;24099;47.102;15.440;2023-04-08T05:04:08;97098.72;;;4.44;100.00
3668;BME280;24099;47.102;15.440;2023-04-08T05:06:36;97100.50;;;4.43;100.00
3668;BME280;24099;47.102;15.440;2023-04-08T05:09:04;97097.63;;;4.46;100.00
3668;BME280;24099;47.102;15.440;2023-04-08T05:11:32;97111.88;;;4.52;100.00
3668;BME280;24099;47.102;15.440;2023-04-08T05:14:03;97111.56;;;4.55;100.00
3668;BME280;24099;47.102;15.440;2023-04-08T05:16:35;97113.25;;;4.46;100.00
3668;BME280;24099;47.102;15.440;2023-04-08T05:19:06;97117.75;;;4.54;100.00
3668;BME280;24099;47.102;15.440;2023-04-08T05:21:35;97119.53;;;4.54;100.00
3668;BME280;24099;47.102;15.440;2023-04-08T05:24:03;97127.22;;;4.55;100.00
3668;BME280;24099;47.102;15.440;2023-04-08T05:26:41;97129.44;;;4.50;100.00
3668;BME280;24099;47.102;15.440;2023-04-08T05:29:10;97137.78;;;4.54;100.00
3668;BME280;24099;47.102;15.440;2023-04-08T05:31:40;97139.16;;;4.48;100.00
3668;BME280;24099;47.102;15.440;2023-04-08T05:34:07;97138.50;;;4.46;100.00
3668;BME280;24099;47.102;15.440;2023-04-08T05:36:35;97146.84;;;4.49;100.00
3668;BME280;24099;47.102;15.440;2023-04-08T05:39:03;97151.44;;;4.38;100.00
3668;BME280;24099;47.102;15.440;2023-04-08T05:41:31;97159.06;;;4.49;100.00
3668;BME280;24099;47.102;15.440;2023-04-08T05:43:59;97154.13;;;4.19;100.00
3668;BME280;24099;47.102;15.440;2023-04-08T05:46:28;97160.34;;;4.35;100.00
3668;BME280;24099;47.102;15.440;2023-04-08T05:48:56;97169.56;;;4.30;100.00
3668;BME280;24099;47.102;15.440;2023-04-08T05:51:24;97174.63;;;4.31;100.00
3668;BME280;24099;47.102;15.440;2023-04-08T05:53:53;97183.53;;;4.29;100.00
3668;BME280;24099;47.102;15.440;2023-04-08T05:56:21;97180.25;;;4.36;100.00
3668;BME280;24099;47.102;15.440;2023-04-08T05:58:49;97185.31;;;4.38;100.00
3668;BME280;24099;47.102;15.440;2023-04-08T06:01:17;97185.97;;;4.40;100.00
3668;BME280;24099;47.102;15.440;2023-04-08T06:03:46;97183.97;;;4.24;100.00
3668;BME280;24099;47.102;15.440;2023-04-08T06:06:14;97185.06;;;4.22;100.00
3668;BME280;24099;47.102;15.440;2023-04-08T06:08:42;97186.84;;;4.31;100.00
3668;BME280;24099;47.102;15.440;2023-04-08T06:11:10;97190.88;;;4.43;100.00
3668;BME280;24099;47.102;15.440;2023-04-08T06:13:37;97186.94;;;4.39;100.00
3668;BME280;24099;47.102;15.440;2023-04-08T06:16:12;97186.41;;;4.35;100.00
3668;BME280;24099;47.102;15.440;2023-04-08T06:18:40;97190.13;;;4.33;100.00
3668;BME280;24099;47.102;15.440;2023-04-08T06:21:11;97203.16;;;4.33;100.00
3668;BME280;24099;47.102;15.440;2023-04-08T06:23:40;97203.56;;;4.28;100.00
3668;BME280;24099;47.102;15.440;2023-04-08T06:26:08;97195.03;;;4.36;100.00
3668;BME280;24099;47.102;15.440;2023-04-08T06:28:36;97197.38;;;4.39;100.00
3668;BME280;24099;47.102;15.440;2023-04-08T06:31:04;97201.97;;;4.55;100.00
3668;BME280;24099;47.102;15.440;2023-04-08T06:33:32;97212.75;;;4.60;100.00
3668;BME280;24099;47.102;15.440;2023-04-08T06:36:03;97211.19;;;4.49;100.00
3668;BME280;24099;47.102;15.440;2023-04-08T06:38:34;97206.16;;;4.38;100.00
3668;BME280;24099;47.102;15.440;2023-04-08T06:41:03;97207.72;;;4.11;100.00
3668;BME280;24099;47.102;15.440;2023-04-08T06:43:33;97212.88;;;4.31;100.00
3668;BME280;24099;47.102;15.440;2023-04-08T06:46:01;97215.09;;;4.26;100.00
3668;BME280;24099;47.102;15.440;2023-04-08T06:48:30;97215.94;;;4.17;100.00
3668;BME280;24099;47.102;15.440;2023-04-08T06:51:00;97218.47;;;3.99;100.00
3668;BME280;24099;47.102;15.440;2023-04-08T06:53:28;97214.84;;;4.00;100.00
3668;BME280;24099;47.102;15.440;2023-04-08T06:56:00;97225.56;;;3.97;100.00
3668;BME280;24099;47.102;15.440;2023-04-08T06:58:29;97220.06;;;4.00;100.00
3668;BME280;24099;47.102;15.440;2023-04-08T07:00:59;97221.97;;;4.07;100.00
3668;BME280;24099;47.102;15.440;2023-04-08T07:03:28;97231.31;;;4.10;100.00
3668;BME280;24099;47.102;15.440;2023-04-08T07:05:57;97240.63;;;4.12;100.00
3668;BME280;24099;47.102;15.440;2023-04-08T07:08:25;97240.09;;;3.90;100.00
3668;BME280;24099;47.102;15.440;2023-04-08T07:10:53;97239.44;;;3.78;100.00
3668;BME280;24099;47.102;15.440;2023-04-08T07:13:22;97248.06;;;3.98;100.00
3668;BME280;24099;47.102;15.440;2023-04-08T07:15:52;97245.41;;;4.07;100.00
3668;BME280;24099;47.102;15.440;2023-04-08T07:18:20;97247.38;;;3.86;100.00
3668;BME280;24099;47.102;15.440;2023-04-08T07:20:50;97246.13;;;3.90;100.00
3668;BME280;24099;47.102;15.440;2023-04-08T07:23:19;97245.88;;;3.93;100.00
3668;BME280;24099;47.102;15.440;2023-04-08T07:25:47;97251.06;;;3.93;100.00
3668;BME280;24099;47.102;15.440;2023-04-08T07:28:15;97262.13;;;4.05;100.00
3668;BME280;24099;47.102;15.440;2023-04-08T07:30:45;97264.75;;;4.05;100.00
3668;BME280;24099;47.102;15.440;2023-04-08T07:33:13;97263.34;;;4.20;100.00
3668;BME280;24099;47.102;15.440;2023-04-08T07:35:41;97261.34;;;3.95;100.00
3668;BME280;24099;47.102;15.440;2023-04-08T07:38:12;97273.41;;;3.86;100.00
3668;BME280;24099;47.102;15.440;2023-04-08T07:40:39;97265.84;;;3.83;100.00
3668;BME280;24099;47.102;15.440;2023-04-08T07:43:08;97272.56;;;4.05;100.00
3668;BME280;24099;47.102;15.440;2023-04-08T07:45:36;97271.06;;;4.02;100.00
3668;BME280;24099;47.102;15.440;2023-04-08T07:48:06;97272.84;;;4.11;100.00
3668;BME280;24099;47.102;15.440;2023-04-08T07:50:36;97278.63;;;3.96;100.00
3668;BME280;24099;47.102;15.440;2023-04-08T07:53:03;97276.81;;;3.87;100.00
3668;BME280;24099;47.102;15.440;2023-04-08T07:55:33;97284.38;;;3.90;100.00
3668;BME280;24099;47.102;15.440;2023-04-08T07:58:01;97283.53;;;4.08;100.00
3668;BME280;24099;47.102;15.440;2023-04-08T08:00:28;97289.16;;;3.94;100.00
3668;BME280;24099;47.102;15.440;2023-04-08T08:02:57;97293.00;;;3.90;100.00
3668;BME280;24099;47.102;15.440;2023-04-08T08:05:26;97285.72;;;4.03;100.00
3668;BME280;24099;47.102;15.440;2023-04-08T08:07:54;97281.91;;;3.88;100.00
3668;BME280;24099;47.102;15.440;2023-04-08T08:10:21;97289.00;;;4.05;100.00
3668;BME280;24099;47.102;15.440;2023-04-08T08:12:49;97292.03;;;4.10;100.00
3668;BME280;24099;47.102;15.440;2023-04-08T08:15:21;97292.84;;;3.82;100.00
3668;BME280;24099;47.102;15.440;2023-04-08T08:17:49;97289.69;;;3.88;100.00
3668;BME280;24099;47.102;15.440;2023-04-08T08:20:17;97292.47;;;3.96;100.00
3668;BME280;24099;47.102;15.440;2023-04-08T08:22:46;97286.97;;;3.90;100.00
3668;BME280;24099;47.102;15.440;2023-04-08T08:25:14;97287.75;;;4.00;100.00
3668;BME280;24099;47.102;15.440;2023-04-08T08:27:44;97296.97;;;3.75;100.00
3668;BME280;24099;47.102;15.440;2023-04-08T08:30:12;97301.09;;;3.97;100.00
3668;BME280;24099;47.102;15.440;2023-04-08T08:32:41;97306.69;;;4.11;100.00
3668;BME280;24099;47.102;15.440;2023-04-08T08:35:10;97304.06;;;4.02;100.00
3668;BME280;24099;47.102;15.440;2023-04-08T08:37:39;97305.19;;;4.09;100.00
3668;BME280;24099;47.102;15.440;2023-04-08T08:40:09;97307.22;;;4.05;100.00
3668;BME280;24099;47.102;15.440;2023-04-08T08:42:38;97307.22;;;4.25;100.00
3668;BME280;24099;47.102;15.440;2023-04-08T08:45:07;97311.34;;;4.27;100.00
3668;BME280;24099;47.102;15.440;2023-04-08T08:47:35;97307.50;;;4.31;100.00
3668;BME280;24099;47.102;15.440;2023-04-08T08:50:03;97306.78;;;4.48;100.00
3668;BME280;24099;47.102;15.440;2023-04-08T08:52:31;97298.69;;;4.42;100.00
3668;BME280;24099;47.102;15.440;2023-04-08T08:54:59;97302.16;;;4.23;100.00
3668;BME280;24099;47.102;15.440;2023-04-08T08:57:28;97306.00;;;4.09;100.00
3668;BME280;24099;47.102;15.440;2023-04-08T08:59:56;97304.38;;;3.99;100.00
3668;BME280;24099;47.102;15.440;2023-04-08T09:02:25;97308.34;;;3.93;100.00
3668;BME280;24099;47.102;15.440;2023-04-08T09:04:58;97323.41;;;4.19;100.00
3668;BME280;24099;47.102;15.440;2023-04-08T09:07:30;97316.72;;;4.16;100.00
3668;BME280;24099;47.102;15.440;2023-04-08T09:10:02;97320.81;;;3.99;100.00
3668;BME280;24099;47.102;15.440;2023-04-08T09:12:32;97323.00;;;3.85;100.00
3668;BME280;24099;47.102;15.440;2023-04-08T09:15:04;97326.16;;;4.07;100.00
3668;BME280;24099;47.102;15.440;2023-04-08T09:17:33;97323.41;;;4.28;100.00
3668;BME280;24099;47.102;15.440;2023-04-08T09:20:08;97330.69;;;4.05;100.00
3668;BME280;24099;47.102;15.440;2023-04-08T09:22:55;97332.31;;;4.35;100.00
3668;BME280;24099;47.102;15.440;2023-04-08T09:25:25;97329.72;;;4.35;100.00
3668;BME280;24099;47.102;15.440;2023-04-08T09:27:54;97332.59;;;4.32;100.00
3668;BME280;24099;47.102;15.440;2023-04-08T09:30:23;97338.47;;;4.54;100.00
3668;BME280;24099;47.102;15.440;2023-04-08T09:32:54;97336.78;;;4.62;100.00
3668;BME280;24099;47.102;15.440;2023-04-08T09:35:23;97337.47;;;4.64;100.00
3668;BME280;24099;47.102;15.440;2023-04-08T09:37:51;97337.31;;;4.66;100.00
3668;BME280;24099;47.102;15.440;2023-04-08T09:40:19;97348.84;;;4.73;100.00
3668;BME280;24099;47.102;15.440;2023-04-08T09:42:48;97341.81;;;4.83;100.00
3668;BME280;24099;47.102;15.440;2023-04-08T09:45:21;97342.41;;;4.67;100.00
3668;BME280;24099;47.102;15.440;2023-04-08T09:48:03;97341.84;;;4.73;100.00
3668;BME280;24099;47.102;15.440;2023-04-08T09:50:42;97346.06;;;4.84;100.00
3668;BME280;24099;47.102;15.440;2023-04-08T09:53:16;97342.41;;;4.67;100.00
3668;BME280;24099;47.102;15.440;2023-04-08T09:55:49;97346.91;;;4.75;100.00
3668;BME280;24099;47.102;15.440;2023-04-08T09:58:22;97345.09;;;4.85;100.00
3668;BME280;24099;47.102;15.440;2023-04-08T10:00:54;97348.38;;;4.87;100.00
3668;BME280;24099;47.102;15.440;2023-04-08T10:03:28;97349.09;;;4.79;100.00
3668;BME280;24099;47.102;15.440;2023-04-08T10:05:57;97352.34;;;4.91;100.00
3668;BME280;24099;47.102;15.440;2023-04-08T10:08:28;97346.03;;;4.94;100.00
3668;BME280;24099;47.102;15.440;2023-04-08T10:10:58;97343.63;;;5.10;100.00
3668;BME280;24099;47.102;15.440;2023-04-08T10:13:29;97337.59;;;5.09;100.00
3668;BME280;24099;47.102;15.440;2023-04-08T10:16:20;97335.31;;;4.97;100.00
3668;BME280;24099;47.102;15.440;2023-04-08T10:18:50;97328.28;;;5.07;100.00
3668;BME280;24099;47.102;15.440;2023-04-08T10:21:37;97330.59;;;5.10;100.00
3668;BME280;24099;47.102;15.440;2023-04-08T10:24:07;97331.06;;;5.23;100.00
3668;BME280;24099;47.102;15.440;2023-04-08T10:26:42;97330.22;;;5.32;100.00
3668;BME280;24099;47.102;15.440;2023-04-08T10:29:32;97330.94;;;5.25;100.00
3668;BME280;24099;47.102;15.440;2023-04-08T10:32:02;97324.22;;;5.22;100.00
3668;BME280;24099;47.102;15.440;2023-04-08T10:34:30;97318.53;;;5.36;100.00
3668;BME280;24099;47.102;15.440;2023-04-08T10:36:58;97324.59;;;5.54;100.00
3668;BME280;24099;47.102;15.440;2023-04-08T10:39:27;97322.19;;;5.43;100.00
3668;BME280;24099;47.102;15.440;2023-04-08T10:41:56;97321.28;;;5.35;100.00
3668;BME280;24099;47.102;15.440;2023-04-08T10:44:24;97321.59;;;5.49;100.00
3668;BME280;24099;47.102;15.440;2023-04-08T10:46:53;97324.78;;;5.71;100.00
3668;BME280;24099;47.102;15.440;2023-04-08T10:49:33;97318.59;;;5.72;100.00
3668;BME280;24099;47.102;15.440;2023-04-08T10:52:06;97317.09;;;5.69;100.00
3668;BME280;24099;47.102;15.440;2023-04-08T10:54:35;97327.63;;;5.77;100.00
3668;BME280;24099;47.102;15.440;2023-04-08T10:57:04;97310.06;;;5.87;100.00
3668;BME280;24099;47.102;15.440;2023-04-08T10:59:32;97305.16;;;5.84;100.00
3668;BME280;24099;47.102;15.440;2023-04-08T11:02:02;97313.41;;;5.90;100.00
3668;BME280;24099;47.102;15.440;2023-04-08T11:04:30;97312.00;;;5.85;100.00
3668;BME280;24099;47.102;15.440;2023-04-08T11:06:59;97313.00;;;6.02;100.00
3668;BME280;24099;47.102;15.440;2023-04-08T11:09:33;97303.25;;;6.04;100.00
3668;BME280;24099;47.102;15.440;2023-04-08T11:12:04;97304.88;;;6.05;100.00
3668;BME280;24099;47.102;15.440;2023-04-08T11:14:33;97303.53;;;6.01;100.00
3668;BME280;24099;47.102;15.440;2023-04-08T11:17:04;97307.13;;;6.00;100.00
3668;BME280;24099;47.102;15.440;2023-04-08T11:19:35;97304.69;;;5.99;100.00
3668;BME280;24099;47.102;15.440;2023-04-08T11:22:07;97304.66;;;6.16;100.00
3668;BME280;24099;47.102;15.440;2023-04-08T11:24:36;97312.50;;;6.16;100.00
3668;BME280;24099;47.102;15.440;2023-04-08T11:27:05;97312.19;;;6.19;100.00
3668;BME280;24099;47.102;15.440;2023-04-08T11:29:37;97307.03;;;6.28;100.00
3668;BME280;24099;47.102;15.440;2023-04-08T11:32:09;97302.78;;;6.27;100.00
3668;BME280;24099;47.102;15.440;2023-04-08T11:34:39;97296.59;;;5.92;100.00
3668;BME280;24099;47.102;15.440;2023-04-08T11:37:10;97293.88;;;5.84;100.00
3668;BME280;24099;47.102;15.440;2023-04-08T11:39:43;97297.63;;;6.35;100.00
3668;BME280;24099;47.102;15.440;2023-04-08T11:42:26;97292.59;;;6.67;100.00
3668;BME280;24099;47.102;15.440;2023-04-08T11:44:54;97294.19;;;6.34;100.00
3668;BME280;24099;47.102;15.440;2023-04-08T11:47:28;97293.53;;;6.58;100.00
3668;BME280;24099;47.102;15.440;2023-04-08T11:49:57;97293.84;;;6.55;100.00
3668;BME280;24099;47.102;15.440;2023-04-08T11:55:28;97295.56;;;6.46;100.00
3668;BME280;24099;47.102;15.440;2023-04-08T11:58:02;97293.22;;;6.35;100.00
3668;BME280;24099;47.102;15.440;2023-04-08T12:00:31;97280.09;;;6.53;100.00
3668;BME280;24099;47.102;15.440;2023-04-08T12:02:59;97273.31;;;6.68;100.00
3668;BME280;24099;47.102;15.440;2023-04-08T12:05:28;97261.72;;;6.71;100.00
3668;BME280;24099;47.102;15.440;2023-04-08T12:08:00;97269.41;;;6.72;100.00
3668;BME280;24099;47.102;15.440;2023-04-08T12:10:30;97273.91;;;6.88;100.00
3668;BME280;24099;47.102;15.440;2023-04-08T12:13:01;97274.03;;;6.78;100.00
3668;BME280;24099;47.102;15.440;2023-04-08T12:15:32;97274.78;;;6.97;100.00
3668;BME280;24099;47.102;15.440;2023-04-08T12:18:00;97276.41;;;6.98;100.00
3668;BME280;24099;47.102;15.440;2023-04-08T12:20:27;97270.38;;;6.71;100.00
3668;BME280;24099;47.102;15.440;2023-04-08T12:22:55;97281.22;;;6.76;100.00
3668;BME280;24099;47.102;15.440;2023-04-08T12:25:26;97277.03;;;6.40;100.00
3668;BME280;24099;47.102;15.440;2023-04-08T12:27:55;97272.13;;;6.63;100.00
3668;BME280;24099;47.102;15.440;2023-04-08T12:30:23;97277.81;;;6.84;100.00
3668;BME280;24099;47.102;15.440;2023-04-08T12:32:51;97268.63;;;6.80;100.00
3668;BME280;24099;47.102;15.440;2023-04-08T12:35:23;97278.31;;;6.87;100.00
3668;BME280;24099;47.102;15.440;2023-04-08T12:37:54;97277.50;;;6.87;100.00
3668;BME280;24099;47.102;15.440;2023-04-08T12:40:24;97272.97;;;6.97;100.00
3668;BME280;24099;47.102;15.440;2023-04-08T12:42:55;97268.88;;;6.95;100.00
3668;BME280;24099;47.102;15.440;2023-04-08T12:45:32;97272.69;;;7.08;100.00
3668;BME280;24099;47.102;15.440;2023-04-08T12:48:00;97269.13;;;6.83;100.00
3668;BME280;24099;47.102;15.440;2023-04-08T12:50:32;97275.41;;;6.90;100.00
3668;BME280;24099;47.102;15.440;2023-04-08T12:53:03;97272.97;;;6.97;100.00
3668;BME280;24099;47.102;15.440;2023-04-08T12:55:31;97275.41;;;6.65;100.00
3668;BME280;24099;47.102;15.440;2023-04-08T12:58:00;97273.97;;;6.70;100.00
3668;BME280;24099;47.102;15.440;2023-04-08T13:00:30;97270.03;;;6.66;100.00
3668;BME280;24099;47.102;15.440;2023-04-08T13:02:57;97278.53;;;6.68;100.00
3668;BME280;24099;47.102;15.440;2023-04-08T13:05:26;97276.25;;;6.39;100.00
3668;BME280;24099;47.102;15.440;2023-04-08T13:07:54;97280.69;;;6.47;100.00
3668;BME280;24099;47.102;15.440;2023-04-08T13:10:22;97279.66;;;6.66;100.00
3668;BME280;24099;47.102;15.440;2023-04-08T13:12:51;97287.88;;;6.45;100.00
3668;BME280;24099;47.102;15.440;2023-04-08T13:15:21;97297.66;;;6.17;100.00
3668;BME280;24099;47.102;15.440;2023-04-08T13:17:49;97303.53;;;6.01;100.00